sensor_id;sensor_type;location;lat;lon;timestamp;temperature;humidity
22469;DHT22;11401;50.792;4.352;2023-07-31T00:02:02;21.30;70.70
22469;DHT22;11401;50.792;4.352;2023-07-31T00:04:30;21.30;70.80
22469;DHT22;11401;50.792;4.352;2023-07-31T00:06:57;21.30;70.70
22469;DHT22;11401;50.792;4.352;2023-07-31T00:09:24;21.30;70.80
22469;DHT22;11401;50.792;4.352;2023-07-31T00:11:51;21.30;70.70
22469;DHT22;11401;50.792;4.352;2023-07-31T00:14:18;21.40;70.80
22469;DHT22;11401;50.792;4.352;2023-07-31T00:16:45;21.40;70.70
22469;DHT22;11401;50.792;4.352;2023-07-31T00:19:12;21.40;70.60
22469;DHT22;11401;50.792;4.352;2023-07-31T00:21:39;21.40;70.80
22469;DHT22;11401;50.792;4.352;2023-07-31T00:24:06;21.40;71.00
22469;DHT22;11401;50.792;4.352;2023-07-31T00:26:33;21.40;71.20
22469;DHT22;11401;50.792;4.352;2023-07-31T00:29:00;21.40;71.10
22469;DHT22;11401;50.792;4.352;2023-07-31T00:31:27;21.40;71.20
22469;DHT22;11401;50.792;4.352;2023-07-31T00:33:54;21.40;71.20
22469;DHT22;11401;50.792;4.352;2023-07-31T00:36:21;21.40;71.30
22469;DHT22;11401;50.792;4.352;2023-07-31T00:38:49;21.40;71.30
22469;DHT22;11401;50.792;4.352;2023-07-31T00:41:16;21.40;71.30
22469;DHT22;11401;50.792;4.352;2023-07-31T00:43:43;21.40;71.40
22469;DHT22;11401;50.792;4.352;2023-07-31T00:46:10;21.40;71.20
22469;DHT22;11401;50.792;4.352;2023-07-31T00:48:37;21.40;71.30
22469;DHT22;11401;50.792;4.352;2023-07-31T00:51:06;21.40;71.30
22469;DHT22;11401;50.792;4.352;2023-07-31T00:53:34;21.40;71.00
22469;DHT22;11401;50.792;4.352;2023-07-31T00:56:01;21.40;70.90
22469;DHT22;11401;50.792;4.352;2023-07-31T00:58:29;21.40;70.90
22469;DHT22;11401;50.792;4.352;2023-07-31T01:00:56;21.30;70.90
22469;DHT22;11401;50.792;4.352;2023-07-31T01:03:23;21.40;70.70
22469;DHT22;11401;50.792;4.352;2023-07-31T01:08:42;21.40;70.50
22469;DHT22;11401;50.792;4.352;2023-07-31T01:11:17;21.40;70.80
22469;DHT22;11401;50.792;4.352;2023-07-31T01:13:46;21.40;70.70
22469;DHT22;11401;50.792;4.352;2023-07-31T01:16:13;21.40;70.50
22469;DHT22;11401;50.792;4.352;2023-07-31T01:18:40;21.40;70.50
22469;DHT22;11401;50.792;4.352;2023-07-31T01:23:55;21.40;70.70
22469;DHT22;11401;50.792;4.352;2023-07-31T01:26:29;21.30;70.50
22469;DHT22;11401;50.792;4.352;2023-07-31T01:29:17;21.40;70.70
22469;DHT22;11401;50.792;4.352;2023-07-31T01:31:48;21.40;70.70
22469;DHT22;11401;50.792;4.352;2023-07-31T01:34:17;21.30;70.70
22469;DHT22;11401;50.792;4.352;2023-07-31T01:36:45;21.40;70.90
22469;DHT22;11401;50.792;4.352;2023-07-31T01:39:12;21.40;70.80
22469;DHT22;11401;50.792;4.352;2023-07-31T01:41:39;21.50;70.70
22469;DHT22;11401;50.792;4.352;2023-07-31T01:44:07;21.40;70.70
22469;DHT22;11401;50.792;4.352;2023-07-31T01:46:34;21.40;70.60
22469;DHT22;11401;50.792;4.352;2023-07-31T01:49:01;21.40;70.60
22469;DHT22;11401;50.792;4.352;2023-07-31T01:51:28;21.40;70.70
22469;DHT22;11401;50.792;4.352;2023-07-31T01:53:55;21.40;70.60
22469;DHT22;11401;50.792;4.352;2023-07-31T01:56:22;21.50;70.70
22469;DHT22;11401;50.792;4.352;2023-07-31T01:58:49;21.40;70.70
22469;DHT22;11401;50.792;4.352;2023-07-31T02:01:16;21.40;70.80
22469;DHT22;11401;50.792;4.352;2023-07-31T02:03:44;21.50;70.80
22469;DHT22;11401;50.792;4.352;2023-07-31T02:06:11;21.40;71.00
22469;DHT22;11401;50.792;4.352;2023-07-31T02:08:38;21.40;70.90
22469;DHT22;11401;50.792;4.352;2023-07-31T02:11:06;21.40;70.90
22469;DHT22;11401;50.792;4.352;2023-07-31T02:13:33;21.40;71.10
22469;DHT22;11401;50.792;4.352;2023-07-31T02:16:00;21.40;71.00
22469;DHT22;11401;50.792;4.352;2023-07-31T02:18:28;21.40;71.10
22469;DHT22;11401;50.792;4.352;2023-07-31T02:20:55;21.40;71.20
22469;DHT22;11401;50.792;4.352;2023-07-31T02:23:22;21.40;71.20
22469;DHT22;11401;50.792;4.352;2023-07-31T02:25:49;21.40;71.30
22469;DHT22;11401;50.792;4.352;2023-07-31T02:28:16;21.40;71.50
22469;DHT22;11401;50.792;4.352;2023-07-31T02:30:45;21.30;71.60
22469;DHT22;11401;50.792;4.352;2023-07-31T02:33:13;21.40;71.50
22469;DHT22;11401;50.792;4.352;2023-07-31T02:35:40;21.40;71.40
22469;DHT22;11401;50.792;4.352;2023-07-31T02:38:07;21.40;71.40
22469;DHT22;11401;50.792;4.352;2023-07-31T02:40:34;21.40;71.30
22469;DHT22;11401;50.792;4.352;2023-07-31T02:43:01;21.40;71.40
22469;DHT22;11401;50.792;4.352;2023-07-31T02:45:28;21.30;71.50
22469;DHT22;11401;50.792;4.352;2023-07-31T02:47:55;21.30;71.50
22469;DHT22;11401;50.792;4.352;2023-07-31T02:50:22;21.30;71.60
22469;DHT22;11401;50.792;4.352;2023-07-31T02:52:49;21.30;71.40
22469;DHT22;11401;50.792;4.352;2023-07-31T02:55:16;21.30;71.40
22469;DHT22;11401;50.792;4.352;2023-07-31T02:57:43;21.40;71.40
22469;DHT22;11401;50.792;4.352;2023-07-31T03:00:11;21.40;71.40
22469;DHT22;11401;50.792;4.352;2023-07-31T03:02:38;21.30;71.30
22469;DHT22;11401;50.792;4.352;2023-07-31T03:05:05;21.30;71.40
22469;DHT22;11401;50.792;4.352;2023-07-31T03:07:32;21.20;71.40
22469;DHT22;11401;50.792;4.352;2023-07-31T03:09:59;21.20;71.60
22469;DHT22;11401;50.792;4.352;2023-07-31T03:12:26;21.30;71.40
22469;DHT22;11401;50.792;4.352;2023-07-31T03:14:53;21.30;71.20
22469;DHT22;11401;50.792;4.352;2023-07-31T03:17:20;21.30;71.20
22469;DHT22;11401;50.792;4.352;2023-07-31T03:19:47;21.30;71.20
22469;DHT22;11401;50.792;4.352;2023-07-31T03:22:14;21.30;71.20
22469;DHT22;11401;50.792;4.352;2023-07-31T03:24:41;21.30;71.20
22469;DHT22;11401;50.792;4.352;2023-07-31T03:27:08;21.30;71.40
22469;DHT22;11401;50.792;4.352;2023-07-31T03:29:35;21.30;71.30
22469;DHT22;11401;50.792;4.352;2023-07-31T03:32:03;21.30;71.20
22469;DHT22;11401;50.792;4.352;2023-07-31T03:34:30;21.30;71.10
22469;DHT22;11401;50.792;4.352;2023-07-31T03:36:58;21.30;71.40
22469;DHT22;11401;50.792;4.352;2023-07-31T03:39:25;21.30;71.40
22469;DHT22;11401;50.792;4.352;2023-07-31T03:41:53;21.30;71.30
22469;DHT22;11401;50.792;4.352;2023-07-31T03:44:20;21.30;71.30
22469;DHT22;11401;50.792;4.352;2023-07-31T03:46:47;21.20;71.50
22469;DHT22;11401;50.792;4.352;2023-07-31T03:49:14;21.30;71.70
22469;DHT22;11401;50.792;4.352;2023-07-31T03:51:41;21.30;71.60
22469;DHT22;11401;50.792;4.352;2023-07-31T03:54:09;21.20;72.00
22469;DHT22;11401;50.792;4.352;2023-07-31T03:56:36;21.20;72.00
22469;DHT22;11401;50.792;4.352;2023-07-31T03:59:05;21.10;71.80
22469;DHT22;11401;50.792;4.352;2023-07-31T04:01:32;21.10;71.90
22469;DHT22;11401;50.792;4.352;2023-07-31T04:03:59;21.10;71.90
22469;DHT22;11401;50.792;4.352;2023-07-31T04:06:26;21.20;72.00
22469;DHT22;11401;50.792;4.352;2023-07-31T04:08:53;21.20;72.00
22469;DHT22;11401;50.792;4.352;2023-07-31T04:11:20;21.30;71.80
22469;DHT22;11401;50.792;4.352;2023-07-31T04:13:47;21.20;71.90
22469;DHT22;11401;50.792;4.352;2023-07-31T04:16:14;21.20;72.10
22469;DHT22;11401;50.792;4.352;2023-07-31T04:18:41;21.20;72.10
22469;DHT22;11401;50.792;4.352;2023-07-31T04:21:08;21.20;72.00
22469;DHT22;11401;50.792;4.352;2023-07-31T04:23:36;21.20;71.60
22469;DHT22;11401;50.792;4.352;2023-07-31T04:26:03;21.20;71.90
22469;DHT22;11401;50.792;4.352;2023-07-31T04:28:30;21.30;71.80
22469;DHT22;11401;50.792;4.352;2023-07-31T04:30:58;21.30;71.90
22469;DHT22;11401;50.792;4.352;2023-07-31T04:33:25;21.30;71.60
22469;DHT22;11401;50.792;4.352;2023-07-31T04:35:53;21.30;71.40
22469;DHT22;11401;50.792;4.352;2023-07-31T04:38:21;21.20;71.40
22469;DHT22;11401;50.792;4.352;2023-07-31T04:40:48;21.20;71.60
22469;DHT22;11401;50.792;4.352;2023-07-31T04:43:15;21.20;71.50
22469;DHT22;11401;50.792;4.352;2023-07-31T04:45:45;21.20;71.50
22469;DHT22;11401;50.792;4.352;2023-07-31T04:48:14;21.20;71.70
22469;DHT22;11401;50.792;4.352;2023-07-31T04:50:41;21.30;71.30
22469;DHT22;11401;50.792;4.352;2023-07-31T04:53:08;21.10;71.80
22469;DHT22;11401;50.792;4.352;2023-07-31T04:55:35;21.00;72.30
22469;DHT22;11401;50.792;4.352;2023-07-31T04:58:02;20.90;72.30
22469;DHT22;11401;50.792;4.352;2023-07-31T05:00:29;20.80;72.60
22469;DHT22;11401;50.792;4.352;2023-07-31T05:02:56;20.70;73.70
22469;DHT22;11401;50.792;4.352;2023-07-31T05:05:24;20.70;73.40
22469;DHT22;11401;50.792;4.352;2023-07-31T05:07:51;20.60;74.00
22469;DHT22;11401;50.792;4.352;2023-07-31T05:10:18;20.50;74.20
22469;DHT22;11401;50.792;4.352;2023-07-31T05:12:45;20.50;74.50
22469;DHT22;11401;50.792;4.352;2023-07-31T05:15:12;20.40;75.20
22469;DHT22;11401;50.792;4.352;2023-07-31T05:17:39;20.50;74.90
22469;DHT22;11401;50.792;4.352;2023-07-31T05:20:06;20.50;74.60
22469;DHT22;11401;50.792;4.352;2023-07-31T05:22:34;20.60;74.70
22469;DHT22;11401;50.792;4.352;2023-07-31T05:25:01;20.60;74.60
22469;DHT22;11401;50.792;4.352;2023-07-31T05:27:28;20.70;74.30
22469;DHT22;11401;50.792;4.352;2023-07-31T05:29:55;20.60;75.00
22469;DHT22;11401;50.792;4.352;2023-07-31T05:32:22;20.60;74.50
22469;DHT22;11401;50.792;4.352;2023-07-31T05:34:51;20.70;75.20
22469;DHT22;11401;50.792;4.352;2023-07-31T05:37:19;21.00;74.30
22469;DHT22;11401;50.792;4.352;2023-07-31T05:39:46;21.30;73.60
22469;DHT22;11401;50.792;4.352;2023-07-31T05:42:13;21.50;72.70
22469;DHT22;11401;50.792;4.352;2023-07-31T05:44:40;21.40;71.00
22469;DHT22;11401;50.792;4.352;2023-07-31T05:47:07;21.10;71.70
22469;DHT22;11401;50.792;4.352;2023-07-31T05:49:35;21.10;72.40
22469;DHT22;11401;50.792;4.352;2023-07-31T05:52:02;20.90;72.50
22469;DHT22;11401;50.792;4.352;2023-07-31T05:54:29;20.90;73.00
22469;DHT22;11401;50.792;4.352;2023-07-31T05:56:56;20.80;73.10
22469;DHT22;11401;50.792;4.352;2023-07-31T05:59:24;20.70;73.60
22469;DHT22;11401;50.792;4.352;2023-07-31T06:01:51;20.70;73.30
22469;DHT22;11401;50.792;4.352;2023-07-31T06:04:18;20.60;73.70
22469;DHT22;11401;50.792;4.352;2023-07-31T06:06:48;20.60;73.90
22469;DHT22;11401;50.792;4.352;2023-07-31T06:09:15;20.40;74.20
22469;DHT22;11401;50.792;4.352;2023-07-31T06:11:42;20.40;74.80
22469;DHT22;11401;50.792;4.352;2023-07-31T06:14:09;20.40;74.60
22469;DHT22;11401;50.792;4.352;2023-07-31T06:16:37;20.50;74.40
22469;DHT22;11401;50.792;4.352;2023-07-31T06:19:04;20.50;73.80
22469;DHT22;11401;50.792;4.352;2023-07-31T06:21:31;20.70;75.00
22469;DHT22;11401;50.792;4.352;2023-07-31T06:23:59;20.80;73.40
22469;DHT22;11401;50.792;4.352;2023-07-31T06:26:26;20.80;73.20
22469;DHT22;11401;50.792;4.352;2023-07-31T06:28:53;20.80;73.00
22469;DHT22;11401;50.792;4.352;2023-07-31T19:10:04;21.90;74.60
22469;DHT22;11401;50.792;4.352;2023-07-31T19:12:42;21.90;74.40
22469;DHT22;11401;50.792;4.352;2023-07-31T19:15:10;21.90;74.30
22469;DHT22;11401;50.792;4.352;2023-07-31T19:17:38;21.90;74.30
22469;DHT22;11401;50.792;4.352;2023-07-31T19:20:06;21.80;74.50
22469;DHT22;11401;50.792;4.352;2023-07-31T19:22:33;21.90;75.30
22469;DHT22;11401;50.792;4.352;2023-07-31T19:25:00;21.90;74.50
22469;DHT22;11401;50.792;4.352;2023-07-31T19:27:27;22.00;74.10
22469;DHT22;11401;50.792;4.352;2023-07-31T19:29:54;21.90;74.30
22469;DHT22;11401;50.792;4.352;2023-07-31T19:32:21;21.90;74.50
22469;DHT22;11401;50.792;4.352;2023-07-31T19:34:48;21.90;74.50
22469;DHT22;11401;50.792;4.352;2023-07-31T19:37:16;21.90;74.70
22469;DHT22;11401;50.792;4.352;2023-07-31T19:39:43;21.90;74.70
22469;DHT22;11401;50.792;4.352;2023-07-31T19:42:10;21.90;74.70
22469;DHT22;11401;50.792;4.352;2023-07-31T19:44:37;21.90;74.90
22469;DHT22;11401;50.792;4.352;2023-07-31T19:47:04;21.90;74.90
22469;DHT22;11401;50.792;4.352;2023-07-31T19:49:31;21.90;75.00
22469;DHT22;11401;50.792;4.352;2023-07-31T19:51:59;21.90;75.00
22469;DHT22;11401;50.792;4.352;2023-07-31T19:54:26;21.90;75.10
22469;DHT22;11401;50.792;4.352;2023-07-31T19:56:56;21.90;75.80
22469;DHT22;11401;50.792;4.352;2023-07-31T19:59:24;22.00;75.30
22469;DHT22;11401;50.792;4.352;2023-07-31T20:01:54;21.90;75.40
22469;DHT22;11401;50.792;4.352;2023-07-31T20:04:21;21.90;75.40
22469;DHT22;11401;50.792;4.352;2023-07-31T20:06:48;21.90;75.60
22469;DHT22;11401;50.792;4.352;2023-07-31T20:09:15;21.90;75.50
22469;DHT22;11401;50.792;4.352;2023-07-31T20:11:42;21.90;75.70
22469;DHT22;11401;50.792;4.352;2023-07-31T20:14:09;21.90;75.60
22469;DHT22;11401;50.792;4.352;2023-07-31T20:16:36;21.90;75.50
22469;DHT22;11401;50.792;4.352;2023-07-31T20:19:08;21.90;75.50
22469;DHT22;11401;50.792;4.352;2023-07-31T20:21:35;21.90;75.50
22469;DHT22;11401;50.792;4.352;2023-07-31T20:24:06;21.90;75.50
22469;DHT22;11401;50.792;4.352;2023-07-31T20:26:35;21.90;75.60
22469;DHT22;11401;50.792;4.352;2023-07-31T20:29:02;21.90;75.60
22469;DHT22;11401;50.792;4.352;2023-07-31T20:31:29;21.90;75.70
22469;DHT22;11401;50.792;4.352;2023-07-31T20:33:56;21.90;75.70
22469;DHT22;11401;50.792;4.352;2023-07-31T20:36:23;21.90;75.70
22469;DHT22;11401;50.792;4.352;2023-07-31T20:38:50;21.90;75.80
22469;DHT22;11401;50.792;4.352;2023-07-31T20:41:17;21.90;75.80
22469;DHT22;11401;50.792;4.352;2023-07-31T20:43:44;21.90;75.70
22469;DHT22;11401;50.792;4.352;2023-07-31T20:46:11;21.90;75.80
22469;DHT22;11401;50.792;4.352;2023-07-31T20:48:38;21.90;75.80
22469;DHT22;11401;50.792;4.352;2023-07-31T20:51:05;21.90;75.80
22469;DHT22;11401;50.792;4.352;2023-07-31T20:53:32;21.90;75.90
22469;DHT22;11401;50.792;4.352;2023-07-31T20:55:59;21.90;75.90
22469;DHT22;11401;50.792;4.352;2023-07-31T20:58:26;21.90;75.90
22469;DHT22;11401;50.792;4.352;2023-07-31T21:00:54;21.90;75.90
22469;DHT22;11401;50.792;4.352;2023-07-31T21:03:21;21.90;76.00
22469;DHT22;11401;50.792;4.352;2023-07-31T21:05:49;21.90;76.00
22469;DHT22;11401;50.792;4.352;2023-07-31T21:08:17;21.90;76.10
22469;DHT22;11401;50.792;4.352;2023-07-31T21:10:44;21.90;76.10
22469;DHT22;11401;50.792;4.352;2023-07-31T21:13:11;21.90;76.20
22469;DHT22;11401;50.792;4.352;2023-07-31T21:15:40;21.90;76.20
22469;DHT22;11401;50.792;4.352;2023-07-31T21:18:08;21.90;76.10
22469;DHT22;11401;50.792;4.352;2023-07-31T21:20:36;21.90;76.10
22469;DHT22;11401;50.792;4.352;2023-07-31T21:23:03;21.90;76.10
22469;DHT22;11401;50.792;4.352;2023-07-31T21:25:37;22.00;76.00
22469;DHT22;11401;50.792;4.352;2023-07-31T21:28:04;21.90;75.90
22469;DHT22;11401;50.792;4.352;2023-07-31T21:30:31;21.90;76.10
22469;DHT22;11401;50.792;4.352;2023-07-31T21:33:00;21.80;76.10
22469;DHT22;11401;50.792;4.352;2023-07-31T21:35:27;21.90;76.00
22469;DHT22;11401;50.792;4.352;2023-07-31T21:37:55;21.80;75.90
22469;DHT22;11401;50.792;4.352;2023-07-31T21:40:22;21.80;75.80
22469;DHT22;11401;50.792;4.352;2023-07-31T21:42:49;21.80;75.80
22469;DHT22;11401;50.792;4.352;2023-07-31T21:45:17;21.80;75.80
22469;DHT22;11401;50.792;4.352;2023-07-31T21:47:44;21.80;75.70
22469;DHT22;11401;50.792;4.352;2023-07-31T21:50:11;21.70;75.90
22469;DHT22;11401;50.792;4.352;2023-07-31T21:52:38;21.70;75.90
22469;DHT22;11401;50.792;4.352;2023-07-31T21:55:06;21.70;75.90
22469;DHT22;11401;50.792;4.352;2023-07-31T21:57:34;21.70;75.80
22469;DHT22;11401;50.792;4.352;2023-07-31T22:00:05;21.70;76.10
22469;DHT22;11401;50.792;4.352;2023-07-31T22:02:33;21.70;75.70
22469;DHT22;11401;50.792;4.352;2023-07-31T22:05:00;21.60;76.00
22469;DHT22;11401;50.792;4.352;2023-07-31T22:07:27;21.60;75.90
22469;DHT22;11401;50.792;4.352;2023-07-31T22:09:54;21.60;75.90
22469;DHT22;11401;50.792;4.352;2023-07-31T22:12:21;21.60;75.90
22469;DHT22;11401;50.792;4.352;2023-07-31T22:14:48;21.60;75.80
22469;DHT22;11401;50.792;4.352;2023-07-31T22:17:16;21.60;75.80
22469;DHT22;11401;50.792;4.352;2023-07-31T22:19:43;21.60;75.90
22469;DHT22;11401;50.792;4.352;2023-07-31T22:22:10;21.60;75.90
22469;DHT22;11401;50.792;4.352;2023-07-31T22:24:38;21.60;75.90
22469;DHT22;11401;50.792;4.352;2023-07-31T22:27:05;21.60;75.90
22469;DHT22;11401;50.792;4.352;2023-07-31T22:29:32;21.60;75.90
22469;DHT22;11401;50.792;4.352;2023-07-31T22:31:59;21.60;75.90
22469;DHT22;11401;50.792;4.352;2023-07-31T22:34:26;21.60;75.80
22469;DHT22;11401;50.792;4.352;2023-07-31T22:36:53;21.60;75.90
22469;DHT22;11401;50.792;4.352;2023-07-31T22:39:20;21.60;76.10
22469;DHT22;11401;50.792;4.352;2023-07-31T22:41:47;21.60;76.10
22469;DHT22;11401;50.792;4.352;2023-07-31T22:44:14;21.60;75.80
22469;DHT22;11401;50.792;4.352;2023-07-31T22:46:41;21.50;76.10
22469;DHT22;11401;50.792;4.352;2023-07-31T22:49:09;21.40;76.10
22469;DHT22;11401;50.792;4.352;2023-07-31T22:51:36;21.40;75.90
22469;DHT22;11401;50.792;4.352;2023-07-31T22:54:03;21.50;75.90
22469;DHT22;11401;50.792;4.352;2023-07-31T22:56:30;21.50;75.60
22469;DHT22;11401;50.792;4.352;2023-07-31T22:58:57;21.50;75.60
22469;DHT22;11401;50.792;4.352;2023-07-31T23:01:25;21.50;75.50
22469;DHT22;11401;50.792;4.352;2023-07-31T23:03:54;21.50;75.40
22469;DHT22;11401;50.792;4.352;2023-07-31T23:06:21;21.50;75.40
22469;DHT22;11401;50.792;4.352;2023-07-31T23:08:48;21.40;75.30
22469;DHT22;11401;50.792;4.352;2023-07-31T23:11:15;21.40;75.20
22469;DHT22;11401;50.792;4.352;2023-07-31T23:13:42;21.40;75.30
22469;DHT22;11401;50.792;4.352;2023-07-31T23:16:09;21.40;75.40
22469;DHT22;11401;50.792;4.352;2023-07-31T23:18:36;21.40;75.50
22469;DHT22;11401;50.792;4.352;2023-07-31T23:21:04;21.40;75.30
22469;DHT22;11401;50.792;4.352;2023-07-31T23:23:31;21.40;75.10
22469;DHT22;11401;50.792;4.352;2023-07-31T23:25:58;21.40;75.10
22469;DHT22;11401;50.792;4.352;2023-07-31T23:28:25;21.40;75.20
22469;DHT22;11401;50.792;4.352;2023-07-31T23:30:52;21.30;75.10
22469;DHT22;11401;50.792;4.352;2023-07-31T23:33:19;21.30;75.30
22469;DHT22;11401;50.792;4.352;2023-07-31T23:35:46;21.30;75.30
22469;DHT22;11401;50.792;4.352;2023-07-31T23:38:13;21.30;75.20
22469;DHT22;11401;50.792;4.352;2023-07-31T23:40:40;21.30;75.30
22469;DHT22;11401;50.792;4.352;2023-07-31T23:43:07;21.30;75.10
22469;DHT22;11401;50.792;4.352;2023-07-31T23:45:34;21.30;75.20
22469;DHT22;11401;50.792;4.352;2023-07-31T23:48:01;21.30;75.20
22469;DHT22;11401;50.792;4.352;2023-07-31T23:50:28;21.30;75.30
22469;DHT22;11401;50.792;4.352;2023-07-31T23:52:55;21.30;74.90
22469;DHT22;11401;50.792;4.352;2023-07-31T23:55:23;21.30;75.00
22469;DHT22;11401;50.792;4.352;2023-07-31T23:57:51;21.30;75.10
